sensor_id;sensor_type;location;lat;lon;timestamp;P1;durP1;ratioP1;P2;durP2;ratioP2
10315;SDS011;5203;48.976;8.306;2023-04-15T00:02:15;5.17;;;3.80;;
10315;SDS011;5203;48.976;8.306;2023-04-15T00:04:42;4.13;;;3.73;;
10315;SDS011;5203;48.976;8.306;2023-04-15T00:07:09;5.47;;;3.53;;
10315;SDS011;5203;48.976;8.306;2023-04-15T00:09:35;4.13;;;3.73;;
10315;SDS011;5203;48.976;8.306;2023-04-15T00:12:00;4.00;;;3.60;;
10315;SDS011;5203;48.976;8.306;2023-04-15T00:14:26;3.87;;;3.47;;
10315;SDS011;5203;48.976;8.306;2023-04-15T00:16:52;3.00;;;2.77;;
10315;SDS011;5203;48.976;8.306;2023-04-15T00:19:20;3.60;;;3.30;;
10315;SDS011;5203;48.976;8.306;2023-04-15T00:21:46;3.37;;;3.07;;
10315;SDS011;5203;48.976;8.306;2023-04-15T00:24:12;3.47;;;3.17;;
10315;SDS011;5203;48.976;8.306;2023-04-15T00:26:37;4.83;;;3.13;;
10315;SDS011;5203;48.976;8.306;2023-04-15T00:29:03;3.60;;;2.90;;
10315;SDS011;5203;48.976;8.306;2023-04-15T00:31:29;4.27;;;3.30;;
10315;SDS011;5203;48.976;8.306;2023-04-15T00:33:56;4.53;;;3.63;;
10315;SDS011;5203;48.976;8.306;2023-04-15T00:36:22;4.90;;;3.37;;
10315;SDS011;5203;48.976;8.306;2023-04-15T00:38:48;4.00;;;3.60;;
10315;SDS011;5203;48.976;8.306;2023-04-15T00:41:14;3.50;;;3.17;;
10315;SDS011;5203;48.976;8.306;2023-04-15T00:43:39;3.80;;;3.50;;
10315;SDS011;5203;48.976;8.306;2023-04-15T00:46:05;4.83;;;3.30;;
10315;SDS011;5203;48.976;8.306;2023-04-15T00:48:31;5.93;;;3.53;;
10315;SDS011;5203;48.976;8.306;2023-04-15T00:50:57;3.87;;;3.43;;
10315;SDS011;5203;48.976;8.306;2023-04-15T00:53:23;3.77;;;3.47;;
10315;SDS011;5203;48.976;8.306;2023-04-15T00:55:49;3.83;;;3.40;;
10315;SDS011;5203;48.976;8.306;2023-04-15T00:58:15;5.47;;;3.63;;
10315;SDS011;5203;48.976;8.306;2023-04-15T01:00:42;5.27;;;3.03;;
10315;SDS011;5203;48.976;8.306;2023-04-15T01:03:08;4.60;;;3.70;;
10315;SDS011;5203;48.976;8.306;2023-04-15T01:05:34;4.33;;;3.73;;
10315;SDS011;5203;48.976;8.306;2023-04-15T01:08:01;4.47;;;3.93;;
10315;SDS011;5203;48.976;8.306;2023-04-15T01:10:27;4.00;;;3.53;;
10315;SDS011;5203;48.976;8.306;2023-04-15T01:12:53;3.90;;;3.40;;
10315;SDS011;5203;48.976;8.306;2023-04-15T01:15:19;4.23;;;3.57;;
10315;SDS011;5203;48.976;8.306;2023-04-15T01:17:45;3.80;;;3.37;;
10315;SDS011;5203;48.976;8.306;2023-04-15T01:20:12;5.73;;;3.80;;
10315;SDS011;5203;48.976;8.306;2023-04-15T01:22:39;4.27;;;3.50;;
10315;SDS011;5203;48.976;8.306;2023-04-15T01:25:12;3.80;;;3.50;;
10315;SDS011;5203;48.976;8.306;2023-04-15T01:27:43;4.13;;;3.40;;
10315;SDS011;5203;48.976;8.306;2023-04-15T01:30:09;4.97;;;3.70;;
10315;SDS011;5203;48.976;8.306;2023-04-15T01:32:35;7.10;;;3.73;;
10315;SDS011;5203;48.976;8.306;2023-04-15T01:35:01;5.67;;;3.83;;
10315;SDS011;5203;48.976;8.306;2023-04-15T01:37:27;5.67;;;3.30;;
10315;SDS011;5203;48.976;8.306;2023-04-15T01:39:53;5.33;;;3.57;;
10315;SDS011;5203;48.976;8.306;2023-04-15T01:42:21;4.43;;;3.60;;
10315;SDS011;5203;48.976;8.306;2023-04-15T01:44:46;5.80;;;3.83;;
10315;SDS011;5203;48.976;8.306;2023-04-15T01:47:12;5.57;;;3.80;;
10315;SDS011;5203;48.976;8.306;2023-04-15T01:49:38;4.07;;;3.20;;
10315;SDS011;5203;48.976;8.306;2023-04-15T01:52:03;4.13;;;3.73;;
10315;SDS011;5203;48.976;8.306;2023-04-15T01:54:29;4.17;;;3.73;;
10315;SDS011;5203;48.976;8.306;2023-04-15T01:56:55;3.97;;;3.60;;
10315;SDS011;5203;48.976;8.306;2023-04-15T01:59:21;4.47;;;3.97;;
10315;SDS011;5203;48.976;8.306;2023-04-15T02:01:47;4.30;;;3.90;;
10315;SDS011;5203;48.976;8.306;2023-04-15T02:04:13;5.17;;;4.00;;
10315;SDS011;5203;48.976;8.306;2023-04-15T02:06:41;6.90;;;4.47;;
10315;SDS011;5203;48.976;8.306;2023-04-15T02:09:08;4.40;;;4.00;;
10315;SDS011;5203;48.976;8.306;2023-04-15T02:11:34;4.90;;;4.50;;
10315;SDS011;5203;48.976;8.306;2023-04-15T02:14:01;4.63;;;3.93;;
10315;SDS011;5203;48.976;8.306;2023-04-15T02:16:29;4.87;;;4.33;;
10315;SDS011;5203;48.976;8.306;2023-04-15T02:18:56;4.60;;;4.20;;
10315;SDS011;5203;48.976;8.306;2023-04-15T02:21:21;6.00;;;3.90;;
10315;SDS011;5203;48.976;8.306;2023-04-15T02:23:47;4.90;;;4.30;;
10315;SDS011;5203;48.976;8.306;2023-04-15T02:26:13;4.20;;;3.70;;
10315;SDS011;5203;48.976;8.306;2023-04-15T02:28:39;4.57;;;4.17;;
10315;SDS011;5203;48.976;8.306;2023-04-15T02:31:05;5.57;;;4.17;;
10315;SDS011;5203;48.976;8.306;2023-04-15T02:33:32;6.03;;;3.87;;
10315;SDS011;5203;48.976;8.306;2023-04-15T02:35:58;4.07;;;3.67;;
10315;SDS011;5203;48.976;8.306;2023-04-15T02:38:23;4.53;;;3.83;;
10315;SDS011;5203;48.976;8.306;2023-04-15T02:40:49;4.80;;;4.03;;
10315;SDS011;5203;48.976;8.306;2023-04-15T02:43:15;4.77;;;3.97;;
10315;SDS011;5203;48.976;8.306;2023-04-15T02:45:42;5.20;;;4.10;;
10315;SDS011;5203;48.976;8.306;2023-04-15T02:48:08;4.70;;;3.43;;
10315;SDS011;5203;48.976;8.306;2023-04-15T02:50:34;4.43;;;4.00;;
10315;SDS011;5203;48.976;8.306;2023-04-15T02:52:59;5.23;;;4.13;;
10315;SDS011;5203;48.976;8.306;2023-04-15T02:55:26;5.43;;;4.30;;
10315;SDS011;5203;48.976;8.306;2023-04-15T02:57:52;4.33;;;3.93;;
10315;SDS011;5203;48.976;8.306;2023-04-15T03:00:18;4.10;;;3.70;;
10315;SDS011;5203;48.976;8.306;2023-04-15T03:02:44;4.60;;;4.00;;
10315;SDS011;5203;48.976;8.306;2023-04-15T03:05:11;5.53;;;4.13;;
10315;SDS011;5203;48.976;8.306;2023-04-15T03:07:38;5.13;;;4.63;;
10315;SDS011;5203;48.976;8.306;2023-04-15T03:10:05;4.33;;;3.97;;
10315;SDS011;5203;48.976;8.306;2023-04-15T03:12:32;6.53;;;4.27;;
10315;SDS011;5203;48.976;8.306;2023-04-15T03:14:58;3.87;;;3.57;;
10315;SDS011;5203;48.976;8.306;2023-04-15T03:17:26;4.97;;;4.20;;
10315;SDS011;5203;48.976;8.306;2023-04-15T03:19:51;4.13;;;3.73;;
10315;SDS011;5203;48.976;8.306;2023-04-15T03:22:17;5.50;;;4.53;;
10315;SDS011;5203;48.976;8.306;2023-04-15T03:24:43;7.17;;;4.60;;
10315;SDS011;5203;48.976;8.306;2023-04-15T03:27:09;5.27;;;4.77;;
10315;SDS011;5203;48.976;8.306;2023-04-15T03:29:34;4.17;;;3.87;;
10315;SDS011;5203;48.976;8.306;2023-04-15T03:32:00;5.30;;;4.20;;
10315;SDS011;5203;48.976;8.306;2023-04-15T03:34:26;4.63;;;4.23;;
10315;SDS011;5203;48.976;8.306;2023-04-15T03:36:52;5.67;;;3.90;;
10315;SDS011;5203;48.976;8.306;2023-04-15T03:39:17;4.67;;;4.20;;
10315;SDS011;5203;48.976;8.306;2023-04-15T03:41:43;3.90;;;3.60;;
10315;SDS011;5203;48.976;8.306;2023-04-15T03:44:09;5.60;;;3.70;;
10315;SDS011;5203;48.976;8.306;2023-04-15T03:46:35;4.60;;;4.20;;
10315;SDS011;5203;48.976;8.306;2023-04-15T03:49:06;4.07;;;3.70;;
10315;SDS011;5203;48.976;8.306;2023-04-15T03:51:33;6.13;;;4.30;;
10315;SDS011;5203;48.976;8.306;2023-04-15T03:53:59;4.53;;;4.13;;
10315;SDS011;5203;48.976;8.306;2023-04-15T03:56:26;4.93;;;4.43;;
10315;SDS011;5203;48.976;8.306;2023-04-15T03:58:51;4.33;;;3.93;;
10315;SDS011;5203;48.976;8.306;2023-04-15T04:01:17;5.87;;;3.67;;
10315;SDS011;5203;48.976;8.306;2023-04-15T04:03:43;5.03;;;3.77;;
10315;SDS011;5203;48.976;8.306;2023-04-15T04:06:09;7.27;;;4.10;;
10315;SDS011;5203;48.976;8.306;2023-04-15T04:08:36;5.97;;;4.10;;
10315;SDS011;5203;48.976;8.306;2023-04-15T04:11:02;7.50;;;3.97;;
10315;SDS011;5203;48.976;8.306;2023-04-15T04:13:28;5.43;;;4.10;;
10315;SDS011;5203;48.976;8.306;2023-04-15T04:15:53;4.97;;;4.20;;
10315;SDS011;5203;48.976;8.306;2023-04-15T04:18:19;5.07;;;4.17;;
10315;SDS011;5203;48.976;8.306;2023-04-15T04:20:45;5.27;;;3.70;;
10315;SDS011;5203;48.976;8.306;2023-04-15T04:23:11;5.10;;;4.40;;
10315;SDS011;5203;48.976;8.306;2023-04-15T04:25:37;5.53;;;3.83;;
10315;SDS011;5203;48.976;8.306;2023-04-15T04:28:03;4.70;;;4.20;;
10315;SDS011;5203;48.976;8.306;2023-04-15T04:30:28;4.87;;;4.13;;
10315;SDS011;5203;48.976;8.306;2023-04-15T04:32:54;3.90;;;3.50;;
10315;SDS011;5203;48.976;8.306;2023-04-15T04:35:20;4.63;;;4.20;;
10315;SDS011;5203;48.976;8.306;2023-04-15T04:37:46;5.23;;;4.27;;
10315;SDS011;5203;48.976;8.306;2023-04-15T04:40:12;4.00;;;3.60;;
10315;SDS011;5203;48.976;8.306;2023-04-15T04:42:38;6.40;;;4.30;;
10315;SDS011;5203;48.976;8.306;2023-04-15T04:45:04;5.53;;;3.97;;
10315;SDS011;5203;48.976;8.306;2023-04-15T04:47:30;4.77;;;4.37;;
10315;SDS011;5203;48.976;8.306;2023-04-15T04:49:55;4.70;;;4.03;;
10315;SDS011;5203;48.976;8.306;2023-04-15T04:52:21;4.20;;;3.80;;
10315;SDS011;5203;48.976;8.306;2023-04-15T04:54:47;5.90;;;3.70;;
10315;SDS011;5203;48.976;8.306;2023-04-15T04:57:12;4.17;;;3.80;;
10315;SDS011;5203;48.976;8.306;2023-04-15T04:59:38;5.53;;;4.07;;
10315;SDS011;5203;48.976;8.306;2023-04-15T05:02:04;3.93;;;3.63;;
10315;SDS011;5203;48.976;8.306;2023-04-15T05:04:30;5.17;;;4.70;;
10315;SDS011;5203;48.976;8.306;2023-04-15T05:06:57;4.80;;;4.30;;
10315;SDS011;5203;48.976;8.306;2023-04-15T05:09:23;4.87;;;4.20;;
10315;SDS011;5203;48.976;8.306;2023-04-15T05:11:49;4.97;;;4.00;;
10315;SDS011;5203;48.976;8.306;2023-04-15T05:14:14;4.63;;;4.23;;
10315;SDS011;5203;48.976;8.306;2023-04-15T05:16:41;16.97;;;5.47;;
10315;SDS011;5203;48.976;8.306;2023-04-15T05:19:06;12.07;;;4.70;;
10315;SDS011;5203;48.976;8.306;2023-04-15T05:21:32;10.53;;;4.50;;
10315;SDS011;5203;48.976;8.306;2023-04-15T05:23:58;6.10;;;3.80;;
10315;SDS011;5203;48.976;8.306;2023-04-15T05:26:24;4.77;;;4.20;;
10315;SDS011;5203;48.976;8.306;2023-04-15T05:28:58;6.63;;;3.83;;
10315;SDS011;5203;48.976;8.306;2023-04-15T05:31:24;5.43;;;4.07;;
10315;SDS011;5203;48.976;8.306;2023-04-15T05:33:53;5.53;;;3.67;;
10315;SDS011;5203;48.976;8.306;2023-04-15T05:36:19;5.30;;;4.50;;
10315;SDS011;5203;48.976;8.306;2023-04-15T05:38:45;5.80;;;4.70;;
10315;SDS011;5203;48.976;8.306;2023-04-15T05:41:11;6.33;;;4.90;;
10315;SDS011;5203;48.976;8.306;2023-04-15T05:43:39;5.50;;;3.97;;
10315;SDS011;5203;48.976;8.306;2023-04-15T05:46:05;6.63;;;4.17;;
10315;SDS011;5203;48.976;8.306;2023-04-15T05:48:32;7.00;;;5.00;;
10315;SDS011;5203;48.976;8.306;2023-04-15T05:51:01;4.80;;;4.30;;
10315;SDS011;5203;48.976;8.306;2023-04-15T05:53:29;4.77;;;4.13;;
10315;SDS011;5203;48.976;8.306;2023-04-15T05:55:58;4.97;;;4.20;;
10315;SDS011;5203;48.976;8.306;2023-04-15T05:58:25;4.67;;;3.97;;
10315;SDS011;5203;48.976;8.306;2023-04-15T06:00:52;5.67;;;5.07;;
10315;SDS011;5203;48.976;8.306;2023-04-15T06:03:17;4.33;;;3.77;;
10315;SDS011;5203;48.976;8.306;2023-04-15T06:05:45;52.87;;;10.70;;
10315;SDS011;5203;48.976;8.306;2023-04-15T06:08:14;11.00;;;7.87;;
10315;SDS011;5203;48.976;8.306;2023-04-15T06:10:40;6.33;;;5.43;;
10315;SDS011;5203;48.976;8.306;2023-04-15T06:13:06;8.50;;;5.20;;
10315;SDS011;5203;48.976;8.306;2023-04-15T06:15:32;12.53;;;5.07;;
10315;SDS011;5203;48.976;8.306;2023-04-15T06:18:03;10.87;;;4.90;;
10315;SDS011;5203;48.976;8.306;2023-04-15T06:20:44;8.73;;;5.23;;
10315;SDS011;5203;48.976;8.306;2023-04-15T06:23:13;8.40;;;4.90;;
10315;SDS011;5203;48.976;8.306;2023-04-15T06:25:41;5.80;;;5.03;;
10315;SDS011;5203;48.976;8.306;2023-04-15T06:31:46;5.30;;;4.80;;
10315;SDS011;5203;48.976;8.306;2023-04-15T06:34:12;5.87;;;5.27;;
10315;SDS011;5203;48.976;8.306;2023-04-15T06:36:38;5.53;;;4.43;;
10315;SDS011;5203;48.976;8.306;2023-04-15T06:39:13;5.70;;;5.07;;
10315;SDS011;5203;48.976;8.306;2023-04-15T06:41:39;5.77;;;5.23;;
10315;SDS011;5203;48.976;8.306;2023-04-15T06:44:26;7.80;;;5.37;;
10315;SDS011;5203;48.976;8.306;2023-04-15T06:47:14;6.53;;;5.80;;
10315;SDS011;5203;48.976;8.306;2023-04-15T06:49:47;8.03;;;6.27;;
10315;SDS011;5203;48.976;8.306;2023-04-15T06:52:13;6.03;;;5.23;;
10315;SDS011;5203;48.976;8.306;2023-04-15T06:54:40;7.17;;;6.17;;
10315;SDS011;5203;48.976;8.306;2023-04-15T06:57:06;6.60;;;6.00;;
10315;SDS011;5203;48.976;8.306;2023-04-15T06:59:33;6.53;;;5.50;;
10315;SDS011;5203;48.976;8.306;2023-04-15T07:01:59;6.50;;;5.70;;
10315;SDS011;5203;48.976;8.306;2023-04-15T07:04:25;7.13;;;5.37;;
10315;SDS011;5203;48.976;8.306;2023-04-15T07:06:52;7.37;;;4.80;;
10315;SDS011;5203;48.976;8.306;2023-04-15T07:09:20;7.87;;;6.87;;
10315;SDS011;5203;48.976;8.306;2023-04-15T07:11:47;6.33;;;5.67;;
10315;SDS011;5203;48.976;8.306;2023-04-15T07:14:13;7.70;;;5.87;;
10315;SDS011;5203;48.976;8.306;2023-04-15T07:16:39;6.83;;;6.17;;
10315;SDS011;5203;48.976;8.306;2023-04-15T07:19:05;5.80;;;5.30;;
10315;SDS011;5203;48.976;8.306;2023-04-15T07:21:31;6.70;;;5.50;;
10315;SDS011;5203;48.976;8.306;2023-04-15T07:23:57;7.57;;;5.93;;
10315;SDS011;5203;48.976;8.306;2023-04-15T07:26:23;7.70;;;5.43;;
10315;SDS011;5203;48.976;8.306;2023-04-15T07:28:48;9.63;;;5.23;;
10315;SDS011;5203;48.976;8.306;2023-04-15T07:31:14;6.93;;;5.70;;
10315;SDS011;5203;48.976;8.306;2023-04-15T07:33:41;6.80;;;6.20;;
10315;SDS011;5203;48.976;8.306;2023-04-15T07:36:07;9.10;;;6.43;;
10315;SDS011;5203;48.976;8.306;2023-04-15T07:38:33;10.50;;;5.50;;
10315;SDS011;5203;48.976;8.306;2023-04-15T07:40:59;9.47;;;6.03;;
10315;SDS011;5203;48.976;8.306;2023-04-15T07:43:24;7.00;;;5.07;;
10315;SDS011;5203;48.976;8.306;2023-04-15T07:45:51;7.50;;;6.80;;
10315;SDS011;5203;48.976;8.306;2023-04-15T07:48:17;8.00;;;7.23;;
10315;SDS011;5203;48.976;8.306;2023-04-15T07:50:43;7.33;;;6.33;;
10315;SDS011;5203;48.976;8.306;2023-04-15T07:53:08;6.40;;;5.80;;
10315;SDS011;5203;48.976;8.306;2023-04-15T07:55:34;10.43;;;7.13;;
10315;SDS011;5203;48.976;8.306;2023-04-15T07:58:00;11.07;;;7.87;;
10315;SDS011;5203;48.976;8.306;2023-04-15T08:00:25;8.57;;;6.87;;
10315;SDS011;5203;48.976;8.306;2023-04-15T08:02:52;8.07;;;6.43;;
10315;SDS011;5203;48.976;8.306;2023-04-15T08:05:18;8.73;;;7.83;;
10315;SDS011;5203;48.976;8.306;2023-04-15T08:07:44;9.80;;;6.87;;
10315;SDS011;5203;48.976;8.306;2023-04-15T08:10:10;7.07;;;6.10;;
10315;SDS011;5203;48.976;8.306;2023-04-15T08:12:36;7.60;;;6.43;;
10315;SDS011;5203;48.976;8.306;2023-04-15T08:15:04;9.07;;;6.20;;
10315;SDS011;5203;48.976;8.306;2023-04-15T08:17:32;8.70;;;6.67;;
10315;SDS011;5203;48.976;8.306;2023-04-15T08:19:58;9.67;;;6.47;;
10315;SDS011;5203;48.976;8.306;2023-04-15T08:22:23;7.07;;;6.10;;
10315;SDS011;5203;48.976;8.306;2023-04-15T08:24:49;8.10;;;6.57;;
10315;SDS011;5203;48.976;8.306;2023-04-15T08:27:15;9.63;;;6.13;;
10315;SDS011;5203;48.976;8.306;2023-04-15T08:29:41;9.60;;;5.87;;
10315;SDS011;5203;48.976;8.306;2023-04-15T08:32:09;7.63;;;6.23;;
10315;SDS011;5203;48.976;8.306;2023-04-15T08:34:38;8.27;;;6.23;;
10315;SDS011;5203;48.976;8.306;2023-04-15T08:37:07;7.33;;;6.30;;
10315;SDS011;5203;48.976;8.306;2023-04-15T08:39:33;8.97;;;6.10;;
10315;SDS011;5203;48.976;8.306;2023-04-15T08:41:59;7.83;;;6.30;;
10315;SDS011;5203;48.976;8.306;2023-04-15T08:44:28;9.07;;;6.00;;
10315;SDS011;5203;48.976;8.306;2023-04-15T08:46:56;7.83;;;6.10;;
10315;SDS011;5203;48.976;8.306;2023-04-15T08:49:25;6.90;;;6.20;;
10315;SDS011;5203;48.976;8.306;2023-04-15T08:51:52;7.40;;;5.57;;
10315;SDS011;5203;48.976;8.306;2023-04-15T08:54:23;9.20;;;6.17;;
10315;SDS011;5203;48.976;8.306;2023-04-15T08:56:53;9.90;;;5.57;;
10315;SDS011;5203;48.976;8.306;2023-04-15T08:59:25;6.60;;;5.93;;
10315;SDS011;5203;48.976;8.306;2023-04-15T09:02:00;7.40;;;5.93;;
10315;SDS011;5203;48.976;8.306;2023-04-15T09:04:29;10.50;;;6.43;;
10315;SDS011;5203;48.976;8.306;2023-04-15T09:06:58;7.87;;;5.67;;
10315;SDS011;5203;48.976;8.306;2023-04-15T09:09:29;7.90;;;6.10;;
10315;SDS011;5203;48.976;8.306;2023-04-15T09:11:55;7.50;;;5.37;;
10315;SDS011;5203;48.976;8.306;2023-04-15T09:14:23;8.37;;;6.30;;
10315;SDS011;5203;48.976;8.306;2023-04-15T09:20:12;7.03;;;5.63;;
10315;SDS011;5203;48.976;8.306;2023-04-15T09:22:40;7.73;;;5.60;;
10315;SDS011;5203;48.976;8.306;2023-04-15T09:25:28;5.43;;;4.93;;
10315;SDS011;5203;48.976;8.306;2023-04-15T09:27:57;6.43;;;5.33;;
10315;SDS011;5203;48.976;8.306;2023-04-15T09:30:26;6.37;;;5.17;;
10315;SDS011;5203;48.976;8.306;2023-04-15T09:32:53;5.63;;;5.13;;
10315;SDS011;5203;48.976;8.306;2023-04-15T09:35:20;8.33;;;5.17;;
10315;SDS011;5203;48.976;8.306;2023-04-15T09:37:48;7.50;;;5.50;;
10315;SDS011;5203;48.976;8.306;2023-04-15T09:40:41;5.83;;;5.23;;
10315;SDS011;5203;48.976;8.306;2023-04-15T09:43:21;7.87;;;5.10;;
10315;SDS011;5203;48.976;8.306;2023-04-15T09:46:16;7.20;;;5.10;;
10315;SDS011;5203;48.976;8.306;2023-04-15T09:48:42;7.60;;;5.20;;
10315;SDS011;5203;48.976;8.306;2023-04-15T09:51:08;5.83;;;5.33;;
10315;SDS011;5203;48.976;8.306;2023-04-15T09:53:40;7.10;;;5.33;;
10315;SDS011;5203;48.976;8.306;2023-04-15T09:56:11;6.20;;;4.97;;
10315;SDS011;5203;48.976;8.306;2023-04-15T09:58:37;6.20;;;5.60;;
10315;SDS011;5203;48.976;8.306;2023-04-15T10:01:10;7.10;;;5.50;;
10315;SDS011;5203;48.976;8.306;2023-04-15T10:03:46;7.93;;;5.50;;
10315;SDS011;5203;48.976;8.306;2023-04-15T10:06:23;6.57;;;5.27;;
10315;SDS011;5203;48.976;8.306;2023-04-15T10:09:08;11.20;;;6.77;;
10315;SDS011;5203;48.976;8.306;2023-04-15T10:11:41;7.80;;;6.17;;
10315;SDS011;5203;48.976;8.306;2023-04-15T10:14:14;7.27;;;6.67;;
10315;SDS011;5203;48.976;8.306;2023-04-15T10:16:48;7.60;;;6.80;;
10315;SDS011;5203;48.976;8.306;2023-04-15T10:19:20;9.60;;;7.40;;
10315;SDS011;5203;48.976;8.306;2023-04-15T10:22:04;8.40;;;7.23;;
10315;SDS011;5203;48.976;8.306;2023-04-15T10:24:42;11.90;;;8.73;;
10315;SDS011;5203;48.976;8.306;2023-04-15T10:30:21;9.30;;;7.37;;
10315;SDS011;5203;48.976;8.306;2023-04-15T10:33:05;7.80;;;7.10;;
10315;SDS011;5203;48.976;8.306;2023-04-15T10:35:48;8.30;;;7.50;;
10315;SDS011;5203;48.976;8.306;2023-04-15T10:41:26;12.20;;;7.50;;
10315;SDS011;5203;48.976;8.306;2023-04-15T10:44:03;8.30;;;7.23;;
10315;SDS011;5203;48.976;8.306;2023-04-15T10:46:42;8.60;;;6.83;;
10315;SDS011;5203;48.976;8.306;2023-04-15T10:51:57;7.60;;;7.00;;
10315;SDS011;5203;48.976;8.306;2023-04-15T11:00:00;7.67;;;6.87;;
10315;SDS011;5203;48.976;8.306;2023-04-15T11:08:19;8.90;;;7.00;;
10315;SDS011;5203;48.976;8.306;2023-04-15T11:11:07;7.27;;;6.03;;
10315;SDS011;5203;48.976;8.306;2023-04-15T11:13:36;6.90;;;5.27;;
10315;SDS011;5203;48.976;8.306;2023-04-15T11:16:30;7.00;;;6.40;;
10315;SDS011;5203;48.976;8.306;2023-04-15T11:19:11;8.00;;;5.20;;
10315;SDS011;5203;48.976;8.306;2023-04-15T11:21:43;8.80;;;5.87;;
10315;SDS011;5203;48.976;8.306;2023-04-15T11:24:09;6.33;;;5.00;;
10315;SDS011;5203;48.976;8.306;2023-04-15T11:27:07;5.83;;;5.27;;
10315;SDS011;5203;48.976;8.306;2023-04-15T11:29:47;6.80;;;5.23;;
10315;SDS011;5203;48.976;8.306;2023-04-15T11:32:35;5.47;;;4.97;;
10315;SDS011;5203;48.976;8.306;2023-04-15T11:35:04;7.90;;;5.40;;
10315;SDS011;5203;48.976;8.306;2023-04-15T11:37:30;8.03;;;5.40;;
10315;SDS011;5203;48.976;8.306;2023-04-15T11:40:05;7.97;;;5.27;;
10315;SDS011;5203;48.976;8.306;2023-04-15T11:42:43;5.90;;;4.40;;
10315;SDS011;5203;48.976;8.306;2023-04-15T11:45:18;4.97;;;4.47;;
10315;SDS011;5203;48.976;8.306;2023-04-15T11:47:43;5.37;;;4.40;;
10315;SDS011;5203;48.976;8.306;2023-04-15T11:50:28;6.30;;;4.20;;
10315;SDS011;5203;48.976;8.306;2023-04-15T11:53:05;5.03;;;4.07;;
10315;SDS011;5203;48.976;8.306;2023-04-15T11:55:52;8.33;;;4.30;;
10315;SDS011;5203;48.976;8.306;2023-04-15T12:00:51;5.27;;;3.67;;
10315;SDS011;5203;48.976;8.306;2023-04-15T12:03:42;4.23;;;3.60;;
10315;SDS011;5203;48.976;8.306;2023-04-15T12:06:24;5.43;;;4.00;;
10315;SDS011;5203;48.976;8.306;2023-04-15T12:09:03;5.40;;;3.77;;
10315;SDS011;5203;48.976;8.306;2023-04-15T12:11:38;4.30;;;3.90;;
10315;SDS011;5203;48.976;8.306;2023-04-15T12:14:27;5.30;;;3.57;;
10315;SDS011;5203;48.976;8.306;2023-04-15T12:19:55;3.77;;;3.47;;
10315;SDS011;5203;48.976;8.306;2023-04-15T12:22:21;4.57;;;4.17;;
10315;SDS011;5203;48.976;8.306;2023-04-15T12:25:06;5.27;;;4.67;;
10315;SDS011;5203;48.976;8.306;2023-04-15T12:28:24;6.30;;;4.80;;
10315;SDS011;5203;48.976;8.306;2023-04-15T12:30:50;6.67;;;4.60;;
10315;SDS011;5203;48.976;8.306;2023-04-15T12:33:21;6.67;;;4.97;;
10315;SDS011;5203;48.976;8.306;2023-04-15T12:36:07;7.23;;;5.30;;
10315;SDS011;5203;48.976;8.306;2023-04-15T12:39:05;7.10;;;5.80;;
10315;SDS011;5203;48.976;8.306;2023-04-15T12:41:36;5.87;;;4.87;;
10315;SDS011;5203;48.976;8.306;2023-04-15T12:44:11;5.40;;;5.00;;
10315;SDS011;5203;48.976;8.306;2023-04-15T12:46:42;5.50;;;5.00;;
10315;SDS011;5203;48.976;8.306;2023-04-15T12:49:11;7.15;;;4.88;;
10315;SDS011;5203;48.976;8.306;2023-04-15T12:51:45;6.60;;;5.25;;
10315;SDS011;5203;48.976;8.306;2023-04-15T12:54:42;6.68;;;5.95;;
10315;SDS011;5203;48.976;8.306;2023-04-15T12:57:26;7.35;;;6.00;;
10315;SDS011;5203;48.976;8.306;2023-04-15T13:00:07;6.78;;;6.20;;
10315;SDS011;5203;48.976;8.306;2023-04-15T13:03:05;6.40;;;5.90;;
10315;SDS011;5203;48.976;8.306;2023-04-15T13:05:40;7.15;;;6.35;;
10315;SDS011;5203;48.976;8.306;2023-04-15T13:08:08;7.10;;;6.40;;
10315;SDS011;5203;48.976;8.306;2023-04-15T13:10:37;6.63;;;5.93;;
10315;SDS011;5203;48.976;8.306;2023-04-15T13:13:05;6.63;;;6.13;;
10315;SDS011;5203;48.976;8.306;2023-04-15T13:15:31;5.93;;;5.43;;
10315;SDS011;5203;48.976;8.306;2023-04-15T13:17:56;5.28;;;4.80;;
10315;SDS011;5203;48.976;8.306;2023-04-15T13:20:22;6.13;;;5.53;;
10315;SDS011;5203;48.976;8.306;2023-04-15T13:22:52;5.95;;;5.30;;
10315;SDS011;5203;48.976;8.306;2023-04-15T13:25:18;5.93;;;5.07;;
10315;SDS011;5203;48.976;8.306;2023-04-15T13:27:47;5.43;;;4.87;;
10315;SDS011;5203;48.976;8.306;2023-04-15T13:30:13;5.67;;;5.07;;
10315;SDS011;5203;48.976;8.306;2023-04-15T13:32:50;4.50;;;4.10;;
10315;SDS011;5203;48.976;8.306;2023-04-15T13:35:19;4.47;;;4.07;;
10315;SDS011;5203;48.976;8.306;2023-04-15T13:37:45;5.07;;;4.67;;
10315;SDS011;5203;48.976;8.306;2023-04-15T13:40:18;5.17;;;4.70;;
10315;SDS011;5203;48.976;8.306;2023-04-15T13:42:49;4.97;;;4.57;;
10315;SDS011;5203;48.976;8.306;2023-04-15T13:45:29;4.83;;;4.43;;
10315;SDS011;5203;48.976;8.306;2023-04-15T13:47:57;6.13;;;4.50;;
10315;SDS011;5203;48.976;8.306;2023-04-15T13:50:26;5.53;;;4.90;;
10315;SDS011;5203;48.976;8.306;2023-04-15T13:52:55;5.30;;;4.80;;
10315;SDS011;5203;48.976;8.306;2023-04-15T13:55:26;6.50;;;4.93;;
10315;SDS011;5203;48.976;8.306;2023-04-15T13:57:55;7.57;;;4.63;;
10315;SDS011;5203;48.976;8.306;2023-04-15T14:00:27;7.30;;;5.30;;
10315;SDS011;5203;48.976;8.306;2023-04-15T14:02:56;6.00;;;5.50;;
10315;SDS011;5203;48.976;8.306;2023-04-15T14:05:22;7.53;;;5.20;;
10315;SDS011;5203;48.976;8.306;2023-04-15T14:07:48;5.80;;;4.97;;
10315;SDS011;5203;48.976;8.306;2023-04-15T14:10:17;6.10;;;5.50;;
10315;SDS011;5203;48.976;8.306;2023-04-15T14:12:51;5.03;;;4.60;;
10315;SDS011;5203;48.976;8.306;2023-04-15T14:15:23;6.13;;;5.10;;
10315;SDS011;5203;48.976;8.306;2023-04-15T14:18:03;6.50;;;5.10;;
10315;SDS011;5203;48.976;8.306;2023-04-15T14:20:49;5.10;;;4.70;;
10315;SDS011;5203;48.976;8.306;2023-04-15T14:23:24;5.43;;;4.63;;
10315;SDS011;5203;48.976;8.306;2023-04-15T14:25:57;5.50;;;5.00;;
10315;SDS011;5203;48.976;8.306;2023-04-15T14:28:32;5.67;;;4.50;;
10315;SDS011;5203;48.976;8.306;2023-04-15T14:34:10;5.00;;;4.10;;
10315;SDS011;5203;48.976;8.306;2023-04-15T14:36:43;5.20;;;3.80;;
10315;SDS011;5203;48.976;8.306;2023-04-15T14:46:30;4.23;;;3.83;;
10315;SDS011;5203;48.976;8.306;2023-04-15T14:56:14;3.60;;;3.30;;
10315;SDS011;5203;48.976;8.306;2023-04-15T15:02:13;9.90;;;3.83;;
10315;SDS011;5203;48.976;8.306;2023-04-15T15:05:31;5.97;;;4.27;;
10315;SDS011;5203;48.976;8.306;2023-04-15T15:14:40;4.03;;;3.03;;
10315;SDS011;5203;48.976;8.306;2023-04-15T15:20:06;3.53;;;3.23;;
10315;SDS011;5203;48.976;8.306;2023-04-15T15:25:44;15.03;;;10.57;;
10315;SDS011;5203;48.976;8.306;2023-04-15T15:28:10;4.20;;;3.57;;
10315;SDS011;5203;48.976;8.306;2023-04-15T15:30:36;7.67;;;6.83;;
10315;SDS011;5203;48.976;8.306;2023-04-15T15:33:01;3.67;;;3.37;;
10315;SDS011;5203;48.976;8.306;2023-04-15T15:35:27;2.77;;;2.57;;
10315;SDS011;5203;48.976;8.306;2023-04-15T15:37:53;2.60;;;2.40;;
10315;SDS011;5203;48.976;8.306;2023-04-15T15:40:19;3.60;;;2.80;;
10315;SDS011;5203;48.976;8.306;2023-04-15T15:42:44;2.33;;;2.20;;
10315;SDS011;5203;48.976;8.306;2023-04-15T15:45:13;2.23;;;2.13;;
10315;SDS011;5203;48.976;8.306;2023-04-15T15:47:39;3.33;;;2.60;;
10315;SDS011;5203;48.976;8.306;2023-04-15T15:50:05;2.10;;;2.00;;
10315;SDS011;5203;48.976;8.306;2023-04-15T15:52:31;2.20;;;2.10;;
10315;SDS011;5203;48.976;8.306;2023-04-15T15:54:57;2.33;;;2.10;;
10315;SDS011;5203;48.976;8.306;2023-04-15T15:57:22;3.43;;;3.13;;
10315;SDS011;5203;48.976;8.306;2023-04-15T15:59:48;2.20;;;2.10;;
10315;SDS011;5203;48.976;8.306;2023-04-15T16:02:14;3.60;;;3.13;;
10315;SDS011;5203;48.976;8.306;2023-04-15T16:04:39;2.10;;;2.00;;
10315;SDS011;5203;48.976;8.306;2023-04-15T16:07:07;2.93;;;2.50;;
10315;SDS011;5203;48.976;8.306;2023-04-15T16:09:33;3.77;;;3.47;;
10315;SDS011;5203;48.976;8.306;2023-04-15T16:11:59;4.47;;;2.10;;
10315;SDS011;5203;48.976;8.306;2023-04-15T16:14:26;2.10;;;2.00;;
10315;SDS011;5203;48.976;8.306;2023-04-15T16:16:51;2.60;;;2.40;;
10315;SDS011;5203;48.976;8.306;2023-04-15T16:19:17;6.07;;;3.27;;
10315;SDS011;5203;48.976;8.306;2023-04-15T16:21:44;3.37;;;3.10;;